sensor_id;sensor_type;location;lat;lon;timestamp;P1;durP1;ratioP1;P2;durP2;ratioP2
1479;SDS011;732;51.698;4.886;2022-08-11T00:01:10;7.13;;;4.00;;
1479;SDS011;732;51.698;4.886;2022-08-11T00:03:45;7.77;;;4.97;;
1479;SDS011;732;51.698;4.886;2022-08-11T00:06:22;7.30;;;4.63;;
1479;SDS011;732;51.698;4.886;2022-08-11T00:08:53;4.60;;;3.90;;
1479;SDS011;732;51.698;4.886;2022-08-11T00:11:32;5.43;;;3.60;;
1479;SDS011;732;51.698;4.886;2022-08-11T00:14:03;5.70;;;4.07;;
1479;SDS011;732;51.698;4.886;2022-08-11T00:16:40;6.53;;;4.40;;
1479;SDS011;732;51.698;4.886;2022-08-11T00:19:11;6.77;;;4.13;;
1479;SDS011;732;51.698;4.886;2022-08-11T00:22:06;4.90;;;4.40;;
1479;SDS011;732;51.698;4.886;2022-08-11T00:24:39;3.90;;;3.37;;
1479;SDS011;732;51.698;4.886;2022-08-11T00:27:20;7.20;;;3.93;;
1479;SDS011;732;51.698;4.886;2022-08-11T00:29:59;5.10;;;3.50;;
1479;SDS011;732;51.698;4.886;2022-08-11T00:32:28;6.33;;;3.53;;
1479;SDS011;732;51.698;4.886;2022-08-11T00:34:58;5.00;;;3.97;;
1479;SDS011;732;51.698;4.886;2022-08-11T00:37:48;5.40;;;4.00;;
1479;SDS011;732;51.698;4.886;2022-08-11T00:40:22;5.33;;;3.23;;
1479;SDS011;732;51.698;4.886;2022-08-11T00:42:59;6.03;;;3.60;;
1479;SDS011;732;51.698;4.886;2022-08-11T00:45:51;6.03;;;3.97;;
1479;SDS011;732;51.698;4.886;2022-08-11T00:48:39;5.20;;;3.73;;
1479;SDS011;732;51.698;4.886;2022-08-11T00:51:19;3.20;;;2.90;;
1479;SDS011;732;51.698;4.886;2022-08-11T00:57:52;4.93;;;3.60;;
1479;SDS011;732;51.698;4.886;2022-08-11T01:00:57;3.97;;;3.57;;
1479;SDS011;732;51.698;4.886;2022-08-11T01:03:50;4.00;;;3.37;;
1479;SDS011;732;51.698;4.886;2022-08-11T01:06:50;7.10;;;3.20;;
1479;SDS011;732;51.698;4.886;2022-08-11T01:10:22;5.00;;;4.00;;
1479;SDS011;732;51.698;4.886;2022-08-11T01:13:40;5.80;;;3.77;;
1479;SDS011;732;51.698;4.886;2022-08-11T01:33:12;4.47;;;3.80;;
1479;SDS011;732;51.698;4.886;2022-08-11T01:46:51;7.33;;;4.80;;
1479;SDS011;732;51.698;4.886;2022-08-11T01:49:34;5.20;;;4.40;;
1479;SDS011;732;51.698;4.886;2022-08-11T01:52:33;6.23;;;4.10;;
1479;SDS011;732;51.698;4.886;2022-08-11T01:55:17;7.03;;;4.80;;
1479;SDS011;732;51.698;4.886;2022-08-11T01:57:55;5.80;;;4.60;;
1479;SDS011;732;51.698;4.886;2022-08-11T02:00:39;8.70;;;5.63;;
1479;SDS011;732;51.698;4.886;2022-08-11T02:03:23;7.00;;;4.50;;
1479;SDS011;732;51.698;4.886;2022-08-11T02:06:03;5.53;;;4.50;;
1479;SDS011;732;51.698;4.886;2022-08-11T02:09:06;5.73;;;4.60;;
1479;SDS011;732;51.698;4.886;2022-08-11T02:11:44;8.90;;;4.47;;
1479;SDS011;732;51.698;4.886;2022-08-11T02:14:18;6.63;;;4.20;;
1479;SDS011;732;51.698;4.886;2022-08-11T02:16:58;7.20;;;4.30;;
1479;SDS011;732;51.698;4.886;2022-08-11T02:19:42;7.23;;;4.83;;
1479;SDS011;732;51.698;4.886;2022-08-11T02:22:41;8.43;;;4.43;;
1479;SDS011;732;51.698;4.886;2022-08-11T02:26:04;9.43;;;4.70;;
1479;SDS011;732;51.698;4.886;2022-08-11T02:28:41;9.30;;;4.80;;
1479;SDS011;732;51.698;4.886;2022-08-11T02:31:42;8.93;;;5.50;;
1479;SDS011;732;51.698;4.886;2022-08-11T02:34:58;6.00;;;5.27;;
1479;SDS011;732;51.698;4.886;2022-08-11T02:37:40;8.03;;;5.63;;
1479;SDS011;732;51.698;4.886;2022-08-11T02:40:21;9.20;;;6.07;;
1479;SDS011;732;51.698;4.886;2022-08-11T02:43:07;6.23;;;5.30;;
1479;SDS011;732;51.698;4.886;2022-08-11T02:45:50;7.40;;;6.30;;
1479;SDS011;732;51.698;4.886;2022-08-11T02:48:35;6.13;;;4.93;;
1479;SDS011;732;51.698;4.886;2022-08-11T02:51:34;9.13;;;5.73;;
1479;SDS011;732;51.698;4.886;2022-08-11T02:54:20;7.00;;;5.73;;
1479;SDS011;732;51.698;4.886;2022-08-11T02:56:58;8.03;;;6.13;;
1479;SDS011;732;51.698;4.886;2022-08-11T02:59:42;10.70;;;5.60;;
1479;SDS011;732;51.698;4.886;2022-08-11T03:02:30;6.50;;;5.03;;
1479;SDS011;732;51.698;4.886;2022-08-11T03:05:23;11.13;;;5.90;;
1479;SDS011;732;51.698;4.886;2022-08-11T03:08:13;6.17;;;5.57;;
1479;SDS011;732;51.698;4.886;2022-08-11T03:10:59;8.03;;;6.33;;
1479;SDS011;732;51.698;4.886;2022-08-11T03:14:10;11.10;;;6.17;;
1479;SDS011;732;51.698;4.886;2022-08-11T03:17:08;10.03;;;6.90;;
1479;SDS011;732;51.698;4.886;2022-08-11T03:19:54;8.93;;;6.77;;
1479;SDS011;732;51.698;4.886;2022-08-11T03:22:39;7.53;;;6.60;;
1479;SDS011;732;51.698;4.886;2022-08-11T03:25:23;8.90;;;6.93;;
1479;SDS011;732;51.698;4.886;2022-08-11T03:28:02;13.07;;;6.60;;
1479;SDS011;732;51.698;4.886;2022-08-11T03:30:49;9.40;;;7.03;;
1479;SDS011;732;51.698;4.886;2022-08-11T03:33:25;7.60;;;6.90;;
1479;SDS011;732;51.698;4.886;2022-08-11T03:36:40;7.97;;;6.50;;
1479;SDS011;732;51.698;4.886;2022-08-11T03:39:47;10.00;;;7.40;;
1479;SDS011;732;51.698;4.886;2022-08-11T03:42:27;12.10;;;6.73;;
1479;SDS011;732;51.698;4.886;2022-08-11T03:45:14;6.80;;;6.10;;
1479;SDS011;732;51.698;4.886;2022-08-11T03:47:56;11.27;;;6.43;;
1479;SDS011;732;51.698;4.886;2022-08-11T03:50:46;6.80;;;5.60;;
1479;SDS011;732;51.698;4.886;2022-08-11T03:53:30;8.70;;;6.70;;
1479;SDS011;732;51.698;4.886;2022-08-11T03:56:31;7.07;;;6.10;;
1479;SDS011;732;51.698;4.886;2022-08-11T04:02:48;10.97;;;6.73;;
1479;SDS011;732;51.698;4.886;2022-08-11T04:13:19;7.20;;;6.17;;
1479;SDS011;732;51.698;4.886;2022-08-11T04:16:23;10.10;;;7.00;;
1479;SDS011;732;51.698;4.886;2022-08-11T04:22:45;9.70;;;7.37;;
1479;SDS011;732;51.698;4.886;2022-08-11T04:25:34;10.97;;;6.87;;
1479;SDS011;732;51.698;4.886;2022-08-11T04:28:49;10.90;;;7.10;;
1479;SDS011;732;51.698;4.886;2022-08-11T04:31:38;9.07;;;7.47;;
1479;SDS011;732;51.698;4.886;2022-08-11T04:38:08;10.37;;;7.20;;
1479;SDS011;732;51.698;4.886;2022-08-11T04:45:06;11.33;;;7.30;;
1479;SDS011;732;51.698;4.886;2022-08-11T04:48:19;11.50;;;7.40;;
1479;SDS011;732;51.698;4.886;2022-08-11T04:51:36;7.60;;;6.80;;
1479;SDS011;732;51.698;4.886;2022-08-11T04:55:13;12.10;;;7.13;;
1479;SDS011;732;51.698;4.886;2022-08-11T04:58:20;12.33;;;7.70;;
1479;SDS011;732;51.698;4.886;2022-08-11T05:01:18;10.90;;;7.27;;
1479;SDS011;732;51.698;4.886;2022-08-11T05:07:49;13.00;;;7.33;;
1479;SDS011;732;51.698;4.886;2022-08-11T05:11:06;14.53;;;7.30;;
1479;SDS011;732;51.698;4.886;2022-08-11T05:14:21;8.40;;;7.13;;
1479;SDS011;732;51.698;4.886;2022-08-11T05:17:23;9.63;;;7.00;;
1479;SDS011;732;51.698;4.886;2022-08-11T05:20:24;10.43;;;7.50;;
1479;SDS011;732;51.698;4.886;2022-08-11T05:23:11;10.47;;;7.40;;
1479;SDS011;732;51.698;4.886;2022-08-11T05:25:59;9.93;;;7.03;;
1479;SDS011;732;51.698;4.886;2022-08-11T05:32:22;8.80;;;6.70;;
1479;SDS011;732;51.698;4.886;2022-08-11T05:35:12;10.20;;;7.40;;
1479;SDS011;732;51.698;4.886;2022-08-11T05:38:07;11.10;;;7.33;;
1479;SDS011;732;51.698;4.886;2022-08-11T05:40:56;9.70;;;7.77;;
1479;SDS011;732;51.698;4.886;2022-08-11T05:43:43;15.37;;;8.27;;
1479;SDS011;732;51.698;4.886;2022-08-11T05:46:48;12.13;;;7.80;;
1479;SDS011;732;51.698;4.886;2022-08-11T05:49:35;12.43;;;7.20;;
1479;SDS011;732;51.698;4.886;2022-08-11T05:52:24;15.17;;;8.50;;
1479;SDS011;732;51.698;4.886;2022-08-11T05:55:20;12.50;;;8.83;;
1479;SDS011;732;51.698;4.886;2022-08-11T05:58:32;10.17;;;8.60;;
1479;SDS011;732;51.698;4.886;2022-08-11T06:01:08;10.43;;;8.90;;
1479;SDS011;732;51.698;4.886;2022-08-11T06:03:42;10.63;;;9.10;;
1479;SDS011;732;51.698;4.886;2022-08-11T06:06:29;15.43;;;9.27;;
1479;SDS011;732;51.698;4.886;2022-08-11T06:08:58;14.00;;;9.80;;
1479;SDS011;732;51.698;4.886;2022-08-11T06:11:28;12.77;;;9.73;;
1479;SDS011;732;51.698;4.886;2022-08-11T06:14:10;16.43;;;9.60;;
1479;SDS011;732;51.698;4.886;2022-08-11T06:16:41;13.90;;;10.40;;
1479;SDS011;732;51.698;4.886;2022-08-11T06:19:15;16.40;;;10.73;;
1479;SDS011;732;51.698;4.886;2022-08-11T06:21:46;15.63;;;10.73;;
1479;SDS011;732;51.698;4.886;2022-08-11T06:24:17;14.07;;;9.70;;
1479;SDS011;732;51.698;4.886;2022-08-11T06:26:46;12.60;;;9.90;;
1479;SDS011;732;51.698;4.886;2022-08-11T06:29:44;16.90;;;10.07;;
1479;SDS011;732;51.698;4.886;2022-08-11T06:32:22;11.40;;;9.83;;
1479;SDS011;732;51.698;4.886;2022-08-11T06:35:02;12.70;;;10.00;;
1479;SDS011;732;51.698;4.886;2022-08-11T06:37:41;14.00;;;9.70;;
1479;SDS011;732;51.698;4.886;2022-08-11T06:40:26;11.50;;;9.63;;
1479;SDS011;732;51.698;4.886;2022-08-11T06:43:05;11.20;;;9.80;;
1479;SDS011;732;51.698;4.886;2022-08-11T06:45:49;15.33;;;10.50;;
1479;SDS011;732;51.698;4.886;2022-08-11T06:48:29;13.43;;;9.70;;
1479;SDS011;732;51.698;4.886;2022-08-11T06:51:02;15.03;;;10.83;;
1479;SDS011;732;51.698;4.886;2022-08-11T06:53:41;14.93;;;9.83;;
1479;SDS011;732;51.698;4.886;2022-08-11T06:56:30;17.40;;;10.87;;
1479;SDS011;732;51.698;4.886;2022-08-11T06:59:40;14.43;;;10.63;;
1479;SDS011;732;51.698;4.886;2022-08-11T07:02:29;13.77;;;9.63;;
1479;SDS011;732;51.698;4.886;2022-08-11T07:05:04;12.27;;;10.83;;
1479;SDS011;732;51.698;4.886;2022-08-11T07:11:33;17.07;;;10.80;;
1479;SDS011;732;51.698;4.886;2022-08-11T07:14:40;11.63;;;10.17;;
1479;SDS011;732;51.698;4.886;2022-08-11T07:17:34;14.17;;;9.00;;
1479;SDS011;732;51.698;4.886;2022-08-11T07:20:09;11.33;;;9.60;;
1479;SDS011;732;51.698;4.886;2022-08-11T07:22:57;15.63;;;9.40;;
1479;SDS011;732;51.698;4.886;2022-08-11T07:25:48;15.40;;;9.80;;
1479;SDS011;732;51.698;4.886;2022-08-11T07:28:38;11.70;;;8.40;;
1479;SDS011;732;51.698;4.886;2022-08-11T07:31:25;15.80;;;9.17;;
1479;SDS011;732;51.698;4.886;2022-08-11T07:34:04;14.37;;;9.47;;
1479;SDS011;732;51.698;4.886;2022-08-11T07:36:47;15.30;;;10.43;;
1479;SDS011;732;51.698;4.886;2022-08-11T07:39:20;16.50;;;9.53;;
1479;SDS011;732;51.698;4.886;2022-08-11T07:41:55;14.10;;;9.40;;
1479;SDS011;732;51.698;4.886;2022-08-11T07:44:26;11.07;;;9.40;;
1479;SDS011;732;51.698;4.886;2022-08-11T07:47:00;16.10;;;8.07;;
1479;SDS011;732;51.698;4.886;2022-08-11T07:49:47;10.00;;;7.93;;
1479;SDS011;732;51.698;4.886;2022-08-11T07:52:36;10.90;;;8.50;;
1479;SDS011;732;51.698;4.886;2022-08-11T07:55:06;10.43;;;7.70;;
1479;SDS011;732;51.698;4.886;2022-08-11T07:57:42;10.93;;;7.50;;
1479;SDS011;732;51.698;4.886;2022-08-11T08:00:46;14.13;;;7.73;;
1479;SDS011;732;51.698;4.886;2022-08-11T08:03:47;11.30;;;6.83;;
1479;SDS011;732;51.698;4.886;2022-08-11T08:06:34;10.53;;;7.07;;
1479;SDS011;732;51.698;4.886;2022-08-11T08:09:21;8.40;;;6.03;;
1479;SDS011;732;51.698;4.886;2022-08-11T08:12:08;10.17;;;6.57;;
1479;SDS011;732;51.698;4.886;2022-08-11T08:14:57;16.40;;;5.80;;
1479;SDS011;732;51.698;4.886;2022-08-11T08:17:45;7.83;;;5.97;;
1479;SDS011;732;51.698;4.886;2022-08-11T08:20:44;7.13;;;5.40;;
1479;SDS011;732;51.698;4.886;2022-08-11T08:23:15;5.50;;;4.87;;
1479;SDS011;732;51.698;4.886;2022-08-11T08:25:59;7.20;;;4.93;;
1479;SDS011;732;51.698;4.886;2022-08-11T08:28:29;7.70;;;5.00;;
1479;SDS011;732;51.698;4.886;2022-08-11T08:31:01;8.63;;;4.83;;
1479;SDS011;732;51.698;4.886;2022-08-11T08:33:29;6.30;;;5.10;;
1479;SDS011;732;51.698;4.886;2022-08-11T08:35:59;6.20;;;4.53;;
1479;SDS011;732;51.698;4.886;2022-08-11T08:38:45;5.60;;;5.10;;
1479;SDS011;732;51.698;4.886;2022-08-11T08:41:16;7.10;;;4.77;;
1479;SDS011;732;51.698;4.886;2022-08-11T08:43:52;11.10;;;4.63;;
1479;SDS011;732;51.698;4.886;2022-08-11T08:46:48;7.50;;;4.97;;
1479;SDS011;732;51.698;4.886;2022-08-11T08:49:21;6.07;;;4.40;;
1479;SDS011;732;51.698;4.886;2022-08-11T08:51:58;8.80;;;4.70;;
1479;SDS011;732;51.698;4.886;2022-08-11T08:54:51;9.70;;;4.80;;
1479;SDS011;732;51.698;4.886;2022-08-11T08:57:26;5.50;;;4.20;;
1479;SDS011;732;51.698;4.886;2022-08-11T09:00:05;8.23;;;4.40;;
1479;SDS011;732;51.698;4.886;2022-08-11T09:02:43;7.07;;;4.27;;
1479;SDS011;732;51.698;4.886;2022-08-11T09:05:15;7.23;;;4.33;;
1479;SDS011;732;51.698;4.886;2022-08-11T09:07:46;7.70;;;5.07;;
1479;SDS011;732;51.698;4.886;2022-08-11T09:10:23;5.83;;;4.07;;
1479;SDS011;732;51.698;4.886;2022-08-11T09:12:52;8.70;;;4.37;;
1479;SDS011;732;51.698;4.886;2022-08-11T09:15:21;8.03;;;4.40;;
1479;SDS011;732;51.698;4.886;2022-08-11T09:17:53;7.63;;;4.27;;
1479;SDS011;732;51.698;4.886;2022-08-11T09:20:30;5.77;;;4.70;;
1479;SDS011;732;51.698;4.886;2022-08-11T09:23:02;8.07;;;4.50;;
1479;SDS011;732;51.698;4.886;2022-08-11T09:26:17;4.67;;;4.07;;
1479;SDS011;732;51.698;4.886;2022-08-11T09:29:03;4.93;;;3.93;;
1479;SDS011;732;51.698;4.886;2022-08-11T09:31:34;7.63;;;4.00;;
1479;SDS011;732;51.698;4.886;2022-08-11T09:34:07;7.23;;;4.23;;
1479;SDS011;732;51.698;4.886;2022-08-11T09:36:37;5.43;;;4.00;;
1479;SDS011;732;51.698;4.886;2022-08-11T09:39:25;5.93;;;4.93;;
1479;SDS011;732;51.698;4.886;2022-08-11T09:42:14;8.27;;;4.53;;
1479;SDS011;732;51.698;4.886;2022-08-11T09:44:49;8.47;;;4.50;;
1479;SDS011;732;51.698;4.886;2022-08-11T09:47:20;7.63;;;4.63;;
1479;SDS011;732;51.698;4.886;2022-08-11T09:49:54;6.83;;;4.37;;
1479;SDS011;732;51.698;4.886;2022-08-11T09:52:26;10.00;;;4.80;;
1479;SDS011;732;51.698;4.886;2022-08-11T09:55:00;4.80;;;3.70;;
1479;SDS011;732;51.698;4.886;2022-08-11T09:57:31;5.30;;;4.20;;
1479;SDS011;732;51.698;4.886;2022-08-11T10:00:17;7.30;;;3.97;;
1479;SDS011;732;51.698;4.886;2022-08-11T10:02:49;11.50;;;4.20;;
1479;SDS011;732;51.698;4.886;2022-08-11T10:05:21;7.53;;;4.50;;
1479;SDS011;732;51.698;4.886;2022-08-11T10:08:08;9.00;;;3.50;;
1479;SDS011;732;51.698;4.886;2022-08-11T10:10:40;4.63;;;4.10;;
1479;SDS011;732;51.698;4.886;2022-08-11T10:13:17;6.53;;;4.40;;
1479;SDS011;732;51.698;4.886;2022-08-11T10:16:11;5.03;;;4.50;;
1479;SDS011;732;51.698;4.886;2022-08-11T10:18:42;8.03;;;3.83;;
1479;SDS011;732;51.698;4.886;2022-08-11T10:21:24;5.47;;;3.70;;
1479;SDS011;732;51.698;4.886;2022-08-11T10:23:58;5.87;;;4.70;;
1479;SDS011;732;51.698;4.886;2022-08-11T10:26:45;6.63;;;4.33;;
1479;SDS011;732;51.698;4.886;2022-08-11T10:29:27;6.33;;;4.10;;
1479;SDS011;732;51.698;4.886;2022-08-11T10:32:18;5.33;;;4.07;;
1479;SDS011;732;51.698;4.886;2022-08-11T10:35:24;13.93;;;4.20;;
1479;SDS011;732;51.698;4.886;2022-08-11T10:37:55;5.80;;;4.10;;
1479;SDS011;732;51.698;4.886;2022-08-11T10:40:34;5.60;;;4.30;;
1479;SDS011;732;51.698;4.886;2022-08-11T10:43:05;7.47;;;3.90;;
1479;SDS011;732;51.698;4.886;2022-08-11T10:45:40;6.80;;;4.27;;
1479;SDS011;732;51.698;4.886;2022-08-11T10:48:30;7.83;;;4.10;;
1479;SDS011;732;51.698;4.886;2022-08-11T10:51:04;7.10;;;3.80;;
1479;SDS011;732;51.698;4.886;2022-08-11T10:53:52;4.77;;;3.80;;
1479;SDS011;732;51.698;4.886;2022-08-11T10:56:38;5.77;;;3.97;;
1479;SDS011;732;51.698;4.886;2022-08-11T10:59:25;5.93;;;3.90;;
1479;SDS011;732;51.698;4.886;2022-08-11T11:01:55;6.70;;;4.67;;
1479;SDS011;732;51.698;4.886;2022-08-11T11:04:27;4.47;;;3.73;;
1479;SDS011;732;51.698;4.886;2022-08-11T11:07:17;8.43;;;4.37;;
1479;SDS011;732;51.698;4.886;2022-08-11T11:09:53;6.53;;;4.10;;
1479;SDS011;732;51.698;4.886;2022-08-11T11:12:26;7.00;;;3.83;;
1479;SDS011;732;51.698;4.886;2022-08-11T11:15:18;8.23;;;4.43;;
1479;SDS011;732;51.698;4.886;2022-08-11T11:18:07;8.07;;;3.97;;
1479;SDS011;732;51.698;4.886;2022-08-11T11:20:42;5.50;;;4.20;;
1479;SDS011;732;51.698;4.886;2022-08-11T11:23:15;6.53;;;4.13;;
1479;SDS011;732;51.698;4.886;2022-08-11T11:32:23;7.30;;;4.00;;
1479;SDS011;732;51.698;4.886;2022-08-11T11:35:09;7.50;;;3.80;;
1479;SDS011;732;51.698;4.886;2022-08-11T11:37:57;4.63;;;4.13;;
1479;SDS011;732;51.698;4.886;2022-08-11T11:40:30;5.30;;;4.00;;
1479;SDS011;732;51.698;4.886;2022-08-11T11:43:02;6.57;;;4.30;;
1479;SDS011;732;51.698;4.886;2022-08-11T11:45:31;6.93;;;4.67;;
1479;SDS011;732;51.698;4.886;2022-08-11T11:48:00;9.80;;;4.17;;
1479;SDS011;732;51.698;4.886;2022-08-11T11:50:30;4.30;;;3.90;;
1479;SDS011;732;51.698;4.886;2022-08-11T11:53:03;6.33;;;4.20;;
1479;SDS011;732;51.698;4.886;2022-08-11T11:55:33;7.47;;;3.90;;
1479;SDS011;732;51.698;4.886;2022-08-11T11:58:04;5.73;;;4.20;;
1479;SDS011;732;51.698;4.886;2022-08-11T12:00:53;9.53;;;3.87;;
1479;SDS011;732;51.698;4.886;2022-08-11T12:03:41;4.53;;;3.90;;
1479;SDS011;732;51.698;4.886;2022-08-11T12:06:12;4.13;;;3.80;;
1479;SDS011;732;51.698;4.886;2022-08-11T12:08:41;5.23;;;4.60;;
1479;SDS011;732;51.698;4.886;2022-08-11T12:11:11;5.70;;;4.30;;
1479;SDS011;732;51.698;4.886;2022-08-11T12:14:01;4.70;;;4.40;;
1479;SDS011;732;51.698;4.886;2022-08-11T12:16:36;5.77;;;3.90;;
1479;SDS011;732;51.698;4.886;2022-08-11T12:19:07;4.70;;;4.30;;
1479;SDS011;732;51.698;4.886;2022-08-11T12:21:40;6.30;;;4.07;;
1479;SDS011;732;51.698;4.886;2022-08-11T12:24:30;6.40;;;4.30;;
1479;SDS011;732;51.698;4.886;2022-08-11T12:27:18;4.30;;;3.90;;
1479;SDS011;732;51.698;4.886;2022-08-11T12:29:53;5.53;;;3.50;;
1479;SDS011;732;51.698;4.886;2022-08-11T12:32:26;7.80;;;4.17;;
1479;SDS011;732;51.698;4.886;2022-08-11T12:34:58;5.23;;;4.27;;
1479;SDS011;732;51.698;4.886;2022-08-11T12:37:28;4.73;;;3.70;;
1479;SDS011;732;51.698;4.886;2022-08-11T12:40:03;7.97;;;4.30;;
1479;SDS011;732;51.698;4.886;2022-08-11T12:43:15;4.23;;;3.93;;
1479;SDS011;732;51.698;4.886;2022-08-11T12:46:24;4.67;;;3.33;;
1479;SDS011;732;51.698;4.886;2022-08-11T12:48:58;5.73;;;4.20;;
1479;SDS011;732;51.698;4.886;2022-08-11T12:51:54;6.63;;;4.17;;
1479;SDS011;732;51.698;4.886;2022-08-11T12:54:43;7.10;;;3.87;;
1479;SDS011;732;51.698;4.886;2022-08-11T12:57:19;4.13;;;3.70;;
1479;SDS011;732;51.698;4.886;2022-08-11T13:00:13;4.37;;;3.73;;
1479;SDS011;732;51.698;4.886;2022-08-11T13:03:02;7.43;;;3.70;;
1479;SDS011;732;51.698;4.886;2022-08-11T13:05:51;4.43;;;4.13;;
1479;SDS011;732;51.698;4.886;2022-08-11T13:08:23;4.70;;;4.00;;
1479;SDS011;732;51.698;4.886;2022-08-11T13:10:56;5.80;;;3.57;;
1479;SDS011;732;51.698;4.886;2022-08-11T13:13:45;6.13;;;3.70;;
1479;SDS011;732;51.698;4.886;2022-08-11T13:16:23;7.43;;;4.10;;
1479;SDS011;732;51.698;4.886;2022-08-11T13:18:57;3.97;;;3.57;;
1479;SDS011;732;51.698;4.886;2022-08-11T13:21:27;5.83;;;3.87;;
1479;SDS011;732;51.698;4.886;2022-08-11T13:23:56;6.70;;;3.90;;
1479;SDS011;732;51.698;4.886;2022-08-11T13:26:32;4.87;;;4.03;;
1479;SDS011;732;51.698;4.886;2022-08-11T13:29:16;4.30;;;3.50;;
1479;SDS011;732;51.698;4.886;2022-08-11T13:31:46;10.00;;;3.50;;
1479;SDS011;732;51.698;4.886;2022-08-11T13:34:17;5.70;;;4.40;;
1479;SDS011;732;51.698;4.886;2022-08-11T13:36:48;3.40;;;3.10;;
1479;SDS011;732;51.698;4.886;2022-08-11T13:39:18;5.30;;;3.90;;
1479;SDS011;732;51.698;4.886;2022-08-11T13:41:50;8.90;;;3.87;;
1479;SDS011;732;51.698;4.886;2022-08-11T13:44:22;4.87;;;3.53;;
1479;SDS011;732;51.698;4.886;2022-08-11T13:46:55;4.30;;;3.90;;
1479;SDS011;732;51.698;4.886;2022-08-11T13:49:28;4.10;;;3.40;;
1479;SDS011;732;51.698;4.886;2022-08-11T13:51:57;8.70;;;3.67;;
1479;SDS011;732;51.698;4.886;2022-08-11T13:54:27;4.97;;;3.80;;
1479;SDS011;732;51.698;4.886;2022-08-11T13:56:59;8.87;;;4.00;;
1479;SDS011;732;51.698;4.886;2022-08-11T13:59:54;4.37;;;3.23;;
1479;SDS011;732;51.698;4.886;2022-08-11T14:02:39;5.13;;;3.50;;
1479;SDS011;732;51.698;4.886;2022-08-11T14:05:12;6.97;;;3.53;;
1479;SDS011;732;51.698;4.886;2022-08-11T14:07:45;5.20;;;3.63;;
1479;SDS011;732;51.698;4.886;2022-08-11T14:10:17;8.10;;;3.50;;
1479;SDS011;732;51.698;4.886;2022-08-11T14:12:54;5.43;;;3.37;;
1479;SDS011;732;51.698;4.886;2022-08-11T14:15:45;5.10;;;3.43;;
1479;SDS011;732;51.698;4.886;2022-08-11T14:18:16;4.43;;;3.60;;
1479;SDS011;732;51.698;4.886;2022-08-11T14:20:51;5.17;;;3.73;;
1479;SDS011;732;51.698;4.886;2022-08-11T14:23:40;12.47;;;3.93;;
1479;SDS011;732;51.698;4.886;2022-08-11T14:26:11;4.00;;;3.70;;
1479;SDS011;732;51.698;4.886;2022-08-11T14:28:58;4.83;;;3.53;;
1479;SDS011;732;51.698;4.886;2022-08-11T14:31:29;6.17;;;4.27;;
1479;SDS011;732;51.698;4.886;2022-08-11T14:34:04;8.47;;;3.50;;
1479;SDS011;732;51.698;4.886;2022-08-11T14:36:37;9.27;;;4.03;;
1479;SDS011;732;51.698;4.886;2022-08-11T14:39:11;5.20;;;3.50;;
1479;SDS011;732;51.698;4.886;2022-08-11T14:41:44;6.37;;;3.97;;
1479;SDS011;732;51.698;4.886;2022-08-11T14:44:39;5.33;;;3.80;;
1479;SDS011;732;51.698;4.886;2022-08-11T14:47:44;4.23;;;3.83;;
1479;SDS011;732;51.698;4.886;2022-08-11T14:50:18;5.53;;;3.93;;
1479;SDS011;732;51.698;4.886;2022-08-11T14:52:55;8.17;;;4.30;;
1479;SDS011;732;51.698;4.886;2022-08-11T14:55:27;7.47;;;3.90;;
1479;SDS011;732;51.698;4.886;2022-08-11T14:58:17;5.47;;;3.67;;
1479;SDS011;732;51.698;4.886;2022-08-11T15:00:48;8.47;;;3.60;;
1479;SDS011;732;51.698;4.886;2022-08-11T15:03:19;4.67;;;3.57;;
1479;SDS011;732;51.698;4.886;2022-08-11T15:05:53;4.10;;;3.70;;
1479;SDS011;732;51.698;4.886;2022-08-11T15:08:27;4.20;;;3.77;;
1479;SDS011;732;51.698;4.886;2022-08-11T15:11:18;3.97;;;3.67;;
1479;SDS011;732;51.698;4.886;2022-08-11T15:14:06;5.27;;;3.90;;
1479;SDS011;732;51.698;4.886;2022-08-11T15:16:37;3.60;;;3.40;;
1479;SDS011;732;51.698;4.886;2022-08-11T15:19:27;4.13;;;3.83;;
1479;SDS011;732;51.698;4.886;2022-08-11T15:22:06;6.43;;;3.63;;
1479;SDS011;732;51.698;4.886;2022-08-11T15:24:55;4.57;;;3.97;;
1479;SDS011;732;51.698;4.886;2022-08-11T15:27:25;7.70;;;4.07;;
1479;SDS011;732;51.698;4.886;2022-08-11T15:30:14;4.60;;;4.20;;
1479;SDS011;732;51.698;4.886;2022-08-11T15:33:02;4.30;;;3.90;;
1479;SDS011;732;51.698;4.886;2022-08-11T15:35:52;4.30;;;3.90;;
1479;SDS011;732;51.698;4.886;2022-08-11T15:38:41;9.90;;;3.83;;
1479;SDS011;732;51.698;4.886;2022-08-11T15:41:22;4.20;;;3.63;;
1479;SDS011;732;51.698;4.886;2022-08-11T15:44:25;3.67;;;3.37;;
1479;SDS011;732;51.698;4.886;2022-08-11T15:47:36;3.93;;;3.50;;
1479;SDS011;732;51.698;4.886;2022-08-11T15:50:15;4.10;;;3.60;;
1479;SDS011;732;51.698;4.886;2022-08-11T15:52:48;4.50;;;3.80;;
1479;SDS011;732;51.698;4.886;2022-08-11T15:55:23;4.23;;;3.80;;
1479;SDS011;732;51.698;4.886;2022-08-11T15:57:53;8.13;;;3.70;;
1479;SDS011;732;51.698;4.886;2022-08-11T16:00:43;4.43;;;3.50;;
1479;SDS011;732;51.698;4.886;2022-08-11T16:03:35;4.13;;;3.73;;
1479;SDS011;732;51.698;4.886;2022-08-11T16:06:34;8.20;;;3.47;;
1479;SDS011;732;51.698;4.886;2022-08-11T16:09:16;4.70;;;3.60;;
1479;SDS011;732;51.698;4.886;2022-08-11T16:11:51;6.13;;;3.57;;
1479;SDS011;732;51.698;4.886;2022-08-11T16:14:24;4.53;;;3.43;;
1479;SDS011;732;51.698;4.886;2022-08-11T16:17:12;5.70;;;4.10;;
1479;SDS011;732;51.698;4.886;2022-08-11T16:19:43;3.60;;;3.07;;
1479;SDS011;732;51.698;4.886;2022-08-11T16:22:18;3.97;;;3.63;;
1479;SDS011;732;51.698;4.886;2022-08-11T16:25:00;4.57;;;3.03;;
1479;SDS011;732;51.698;4.886;2022-08-11T16:27:52;3.37;;;3.03;;
1479;SDS011;732;51.698;4.886;2022-08-11T16:30:27;3.40;;;3.10;;
1479;SDS011;732;51.698;4.886;2022-08-11T16:33:00;3.97;;;3.33;;
1479;SDS011;732;51.698;4.886;2022-08-11T16:35:50;3.97;;;3.60;;
1479;SDS011;732;51.698;4.886;2022-08-11T16:38:38;4.63;;;3.63;;
1479;SDS011;732;51.698;4.886;2022-08-11T16:41:09;6.03;;;2.97;;
1479;SDS011;732;51.698;4.886;2022-08-11T16:43:41;3.60;;;2.97;;
1479;SDS011;732;51.698;4.886;2022-08-11T16:46:33;5.30;;;2.90;;
1479;SDS011;732;51.698;4.886;2022-08-11T16:49:22;5.63;;;3.33;;
1479;SDS011;732;51.698;4.886;2022-08-11T16:52:00;9.10;;;3.30;;
1479;SDS011;732;51.698;4.886;2022-08-11T16:54:31;9.40;;;3.50;;
1479;SDS011;732;51.698;4.886;2022-08-11T16:57:01;4.80;;;3.20;;
1479;SDS011;732;51.698;4.886;2022-08-11T16:59:47;3.70;;;3.40;;
1479;SDS011;732;51.698;4.886;2022-08-11T17:02:24;6.70;;;3.80;;
1479;SDS011;732;51.698;4.886;2022-08-11T17:05:19;4.73;;;3.30;;
1479;SDS011;732;51.698;4.886;2022-08-11T17:08:21;3.60;;;3.20;;
1479;SDS011;732;51.698;4.886;2022-08-11T17:11:22;4.23;;;3.57;;
1479;SDS011;732;51.698;4.886;2022-08-11T17:14:13;4.17;;;3.43;;
1479;SDS011;732;51.698;4.886;2022-08-11T17:17:01;4.53;;;3.50;;
1479;SDS011;732;51.698;4.886;2022-08-11T17:19:34;3.70;;;2.90;;
1479;SDS011;732;51.698;4.886;2022-08-11T17:22:28;3.47;;;3.20;;
1479;SDS011;732;51.698;4.886;2022-08-11T17:25:15;10.70;;;3.27;;
1479;SDS011;732;51.698;4.886;2022-08-11T17:27:45;6.53;;;3.10;;
1479;SDS011;732;51.698;4.886;2022-08-11T17:30:14;3.60;;;3.30;;
1479;SDS011;732;51.698;4.886;2022-08-11T17:32:44;4.27;;;3.30;;
1479;SDS011;732;51.698;4.886;2022-08-11T17:35:36;3.40;;;3.10;;
1479;SDS011;732;51.698;4.886;2022-08-11T17:38:10;4.70;;;3.40;;
1479;SDS011;732;51.698;4.886;2022-08-11T17:40:46;6.50;;;3.03;;
1479;SDS011;732;51.698;4.886;2022-08-11T17:43:32;3.93;;;3.03;;
1479;SDS011;732;51.698;4.886;2022-08-11T17:46:18;3.83;;;3.53;;
1479;SDS011;732;51.698;4.886;2022-08-11T17:49:06;4.60;;;2.97;;
1479;SDS011;732;51.698;4.886;2022-08-11T17:51:39;5.13;;;3.90;;
1479;SDS011;732;51.698;4.886;2022-08-11T17:54:28;4.40;;;3.17;;
1479;SDS011;732;51.698;4.886;2022-08-11T17:57:16;4.87;;;3.37;;
1479;SDS011;732;51.698;4.886;2022-08-11T18:00:04;4.07;;;3.40;;
1479;SDS011;732;51.698;4.886;2022-08-11T18:02:38;4.70;;;3.50;;
1479;SDS011;732;51.698;4.886;2022-08-11T18:05:26;9.10;;;3.43;;
1479;SDS011;732;51.698;4.886;2022-08-11T18:07:59;5.80;;;4.00;;
1479;SDS011;732;51.698;4.886;2022-08-11T18:10:49;7.03;;;3.47;;
1479;SDS011;732;51.698;4.886;2022-08-11T18:13:43;5.17;;;3.70;;
1479;SDS011;732;51.698;4.886;2022-08-11T18:16:31;3.90;;;3.50;;
1479;SDS011;732;51.698;4.886;2022-08-11T18:19:17;6.13;;;3.60;;